Time;durP1;ratioP1;P1;durP2;ratioP2;P2;SDS_P1;SDS_P2;PMS_P1;PMS_P2;Temp;Humidity;BMP_temperature;BMP_pressure;BME280_temperature;BME280_humidity;BME280_pressure;Samples;Min_cycle;Max_cycle;Signal;HPM_P1;HPM_P2
2022/01/03 00:00:19;;;;;;;41.05;28.38;;;;;;;7.24;68.61;99770.78;4430865;32;35260;-55
2022/01/03 00:02:47;;;;;;;43.22;28.25;;;;;;;7.17;68.86;99766.75;4420864;32;34567;-55
2022/01/03 00:05:24;;;;;;;44.72;29.37;;;;;;;7.17;68.90;99761.50;4415708;32;34270;-54
2022/01/03 00:07:52;;;;;;;43.22;26.50;;;;;;;7.04;69.62;99755.16;4415418;32;34506;-54
2022/01/03 00:10:20;;;;;;;35.85;23.73;;;;;;;7.06;69.28;99755.94;4415674;32;34467;-55
2022/01/03 00:12:49;;;;;;;34.38;22.92;;;;;;;7.12;69.03;99757.41;4429029;32;33954;-55
2022/01/03 00:15:18;;;;;;;35.05;22.23;;;;;;;7.10;69.25;99757.50;4430827;32;34626;-55
2022/01/03 00:17:49;;;;;;;30.40;20.75;;;;;;;7.14;69.37;99760.81;4431086;32;34232;-54
2022/01/03 00:20:17;;;;;;;35.22;21.45;;;;;;;7.13;69.43;99753.84;4430930;32;34559;-54
2022/01/03 00:23:17;;;;;;;30.08;19.62;;;;;;;6.85;70.24;99753.38;4416265;32;34022;-54
2022/01/03 00:25:50;;;;;;;28.42;18.52;;;;;;;7.01;69.75;99756.13;4423985;31;33907;-55
2022/01/03 00:28:29;;;;;;;28.08;18.30;;;;;;;7.05;69.46;99755.06;4415483;32;34715;-56
2022/01/03 00:30:57;;;;;;;30.17;19.87;;;;;;;7.09;69.24;99753.16;4416395;32;35037;-54
2022/01/03 00:33:25;;;;;;;28.90;18.85;;;;;;;6.96;69.50;99746.78;4430544;32;33998;-54
2022/01/03 00:35:54;;;;;;;;;;;;;;;7.09;68.91;99750.53;4431290;32;34322;-54
2022/01/03 00:38:23;;;;;;;27.95;17.55;;;;;;;7.13;68.68;99738.94;4430860;32;34994;-54
2022/01/03 00:40:52;;;;;;;31.05;18.17;;;;;;;6.99;68.99;99733.50;4482607;31;35561;-55
2022/01/03 00:43:19;;;;;;;30.02;19.42;;;;;;;7.01;68.76;99729.03;4430223;32;34084;-55
2022/01/03 00:45:50;;;;;;;27.98;17.40;;;;;;;6.96;68.57;99739.78;4430487;32;34066;-55
2022/01/03 00:48:18;;;;;;;28.23;18.17;;;;;;;6.98;68.45;99742.28;4430256;32;34637;-54
2022/01/03 00:50:46;;;;;;;27.20;17.55;;;;;;;7.00;68.32;99741.31;4428963;32;33816;-54
2022/01/03 00:53:14;;;;;;;28.62;17.85;;;;;;;6.97;68.31;99743.25;4430490;32;34405;-54
2022/01/03 00:55:59;;;;;;;27.92;17.80;;;;;;;6.82;68.43;99735.16;4430696;32;32476;-54
2022/01/03 00:58:30;;;;;;;29.70;19.00;;;;;;;6.88;68.21;99745.38;4482498;31;34075;-55
2022/01/03 01:00:58;;;;;;;28.60;18.20;;;;;;;6.82;68.44;99747.44;4428962;32;34164;-54
2022/01/03 01:03:33;;;;;;;30.12;19.05;;;;;;;6.77;68.59;99749.44;4467340;32;34369;-54
2022/01/03 01:06:04;;;;;;;31.17;19.95;;;;;;;6.79;68.89;99744.97;4417371;32;33227;-54
2022/01/03 01:08:34;;;;;;;28.85;18.42;;;;;;;6.68;69.00;99746.28;4417377;32;33501;-55
2022/01/03 01:11:04;;;;;;;28.90;18.23;;;;;;;6.75;68.72;99736.38;4417107;32;35330;-54
2022/01/03 01:13:35;;;;;;;29.37;19.42;;;;;;;6.64;69.23;99742.13;4432283;32;33879;-54
2022/01/03 01:16:06;;;;;;;30.37;18.27;;;;;;;6.72;69.23;99736.50;4432561;32;32926;-55
2022/01/03 01:18:36;;;;;;;29.92;19.08;;;;;;;6.78;69.56;99740.63;4432813;32;33976;-54
2022/01/03 01:21:05;;;;;;;29.92;18.60;;;;;;;6.71;70.04;99745.31;4431499;32;34829;-55
2022/01/03 01:23:33;;;;;;;31.45;18.87;;;;;;;6.69;69.95;99736.66;4431234;32;35065;-54
2022/01/03 01:28:47;;;;;;;30.92;18.35;;;;;;;6.77;69.71;99729.28;4432705;32;33977;-54
2022/01/03 01:31:19;;;;;;;27.42;17.17;;;;;;;6.77;69.22;99729.28;4432337;32;35198;-54
2022/01/03 01:33:51;;;;;;;28.65;17.73;;;;;;;6.60;69.47;99727.44;4431007;32;33940;-54
2022/01/03 01:36:28;;;;;;;27.60;17.55;;;;;;;6.78;68.80;99719.63;4432586;32;33490;-54
2022/01/03 01:39:03;;;;;;;29.67;18.85;;;;;;;6.68;69.06;99713.97;4432847;32;34229;-55
2022/01/03 01:41:34;;;;;;;27.90;18.80;;;;;;;6.63;69.09;99716.81;4432444;32;34580;-55
2022/01/03 01:44:01;;;;;;;27.62;17.05;;;;;;;6.68;68.98;99719.22;4430784;32;34086;-54
2022/01/03 01:46:29;;;;;;;26.80;16.83;;;;;;;6.69;68.77;99711.28;4484536;31;33389;-54
2022/01/03 01:49:03;;;;;;;26.77;17.02;;;;;;;6.63;68.84;99711.56;4432483;32;34557;-54
2022/01/03 01:51:34;;;;;;;28.45;17.77;;;;;;;6.65;68.64;99706.22;4432197;32;34608;-54
2022/01/03 01:54:04;;;;;;;26.10;17.02;;;;;;;6.62;68.27;99696.72;4430758;32;35078;-55
2022/01/03 01:56:52;;;;;;;27.90;17.08;;;;;;;6.63;68.18;99695.81;4432708;32;34310;-55
2022/01/03 01:59:58;;;;;;;27.90;17.00;;;;;;;6.69;67.88;99698.16;4432207;32;34005;-54
2022/01/03 02:02:37;;;;;;;26.65;17.00;;;;;;;6.65;67.91;99700.97;4430020;31;34074;-54
2022/01/03 02:05:27;;;;;;;29.70;17.30;;;;;;;6.57;67.92;99696.13;4417922;32;34685;-54
2022/01/03 02:08:03;;;;;;;28.05;17.50;;;;;;;6.47;68.37;99702.69;4417493;32;34306;-54
2022/01/03 02:10:40;;;;;;;27.27;17.60;;;;;;;6.47;68.28;99708.78;4416885;32;34160;-54
2022/01/03 02:13:09;;;;;;;29.58;17.33;;;;;;;6.47;68.30;99710.56;4417321;32;35297;-55
2022/01/03 02:15:37;;;;;;;24.05;15.68;;;;;;;6.49;68.29;99692.97;4416698;32;32767;-54
2022/01/03 02:18:06;;;;;;;28.20;17.70;;;;;;;6.45;68.39;99687.00;4417072;32;33548;-54
2022/01/03 02:20:33;;;;;;;27.37;17.25;;;;;;;6.33;68.80;99698.09;4420561;32;34066;-55
2022/01/03 02:23:03;;;;;;;28.05;18.00;;;;;;;6.47;68.62;99693.03;4432156;32;35070;-54
2022/01/03 02:25:30;;;;;;;26.80;17.05;;;;;;;6.43;68.90;99688.84;4430743;32;33950;-55
2022/01/03 02:27:59;;;;;;;28.77;17.65;;;;;;;6.42;69.03;99681.09;4431879;32;33744;-54
2022/01/03 02:30:30;;;;;;;27.27;17.60;;;;;;;6.36;69.17;99668.22;4431980;32;33822;-54
2022/01/03 02:32:57;;;;;;;26.73;16.77;;;;;;;6.43;69.13;99672.28;4431760;32;35153;-54
2022/01/03 02:35:25;;;;;;;28.02;16.52;;;;;;;6.40;69.36;99675.91;4430642;32;34093;-54
2022/01/03 02:37:54;;;;;;;;;;;;;;;6.45;69.42;99680.94;4484440;31;33092;-54
2022/01/03 02:40:22;;;;;;;25.65;16.98;;;;;;;6.50;69.34;99669.28;4432150;32;33799;-55
2022/01/03 02:42:51;;;;;;;26.45;16.83;;;;;;;6.53;69.11;99673.53;4432044;32;34880;-54
2022/01/03 02:45:22;;;;;;;24.92;16.27;;;;;;;6.49;69.28;99658.87;4430596;32;34706;-54
2022/01/03 02:47:52;;;;;;;27.33;17.27;;;;;;;6.47;69.65;99671.22;4431876;32;34321;-54
2022/01/03 02:50:21;;;;;;;27.73;18.00;;;;;;;6.48;69.79;99671.16;4431757;32;33948;-54
2022/01/03 02:52:49;;;;;;;25.48;16.60;;;;;;;6.45;70.06;99659.94;4432039;32;34823;-55
2022/01/03 02:55:18;;;;;;;23.50;16.70;;;;;;;6.40;70.94;99686.41;4482306;31;33910;-54
2022/01/03 02:57:51;;;;;;;27.67;16.60;;;;;;;6.46;70.86;99673.00;4431591;32;34016;-54
2022/01/03 03:00:21;;;;;;;24.65;15.98;;;;;;;6.57;70.63;99674.25;4431810;32;33880;-54
2022/01/03 03:02:49;;;;;;;24.12;16.25;;;;;;;6.41;71.48;99685.47;4431562;32;35037;-54
2022/01/03 03:05:17;;;;;;;24.20;15.52;;;;;;;6.48;71.46;99689.50;4430336;32;34109;-55
2022/01/03 03:07:46;;;;;;;22.13;15.00;;;;;;;6.48;71.91;99699.16;4431808;32;33864;-54
2022/01/03 03:10:17;;;;;;;24.23;15.32;;;;;;;6.66;71.70;99694.81;4431865;32;33338;-55
2022/01/03 03:12:45;;;;;;;25.60;16.10;;;;;;;6.61;71.97;99689.81;4431634;32;34165;-54
2022/01/03 03:15:15;;;;;;;24.60;14.25;;;;;;;6.46;72.50;99693.12;4431048;32;33133;-55
2022/01/03 03:17:44;;;;;;;25.30;14.87;;;;;;;6.52;72.67;99681.50;4417219;32;35094;-54
2022/01/03 03:20:14;;;;;;;24.10;15.70;;;;;;;6.74;72.03;99681.34;4416130;32;33584;-54
2022/01/03 03:22:42;;;;;;;22.62;14.23;;;;;;;6.75;71.95;99677.81;4416125;32;34285;-54
2022/01/03 03:25:14;;;;;;;19.50;12.37;;;;;;;6.78;71.93;99675.84;4415774;32;33255;-54
2022/01/03 03:27:44;;;;;;;18.65;12.02;;;;;;;7.09;71.95;99669.12;4430045;32;32966;-55
2022/01/03 03:30:26;;;;;;;19.65;12.35;;;;;;;7.22;72.27;99662.34;4431451;32;34777;-55
2022/01/03 03:32:56;;;;;;;19.15;11.02;;;;;;;7.23;72.74;99661.44;4431307;32;33668;-55
2022/01/03 03:35:24;;;;;;;16.33;10.48;;;;;;;7.44;72.56;99667.38;4484085;31;32168;-55
2022/01/03 03:37:51;;;;;;;19.40;12.15;;;;;;;7.67;71.91;99657.44;4429795;32;32979;-54
2022/01/03 03:40:19;;;;;;;;;;;;;;;7.66;70.60;99667.13;4431788;32;34183;-55
2022/01/03 03:42:47;;;;;;;21.02;11.85;;;;;;;7.83;70.02;99673.25;4431300;32;34382;-54
2022/01/03 03:45:15;;;;;;;18.10;11.32;;;;;;;7.82;70.39;99682.09;4431248;32;33886;-54
2022/01/03 03:47:43;;;;;;;19.83;11.40;;;;;;;7.77;70.57;99673.59;4481559;31;33510;-55
2022/01/03 03:50:12;;;;;;;18.92;11.30;;;;;;;7.85;70.33;99674.91;4431259;32;34246;-55
2022/01/03 03:52:39;;;;;;;19.52;11.57;;;;;;;7.84;70.58;99682.88;4431573;32;34994;-55
2022/01/03 03:55:07;;;;;;;22.30;11.93;;;;;;;7.82;70.54;99671.59;4431407;32;33232;-55
2022/01/03 03:57:35;;;;;;;19.87;12.43;;;;;;;7.95;70.70;99684.91;4430136;32;33417;-54
2022/01/03 04:00:06;;;;;;;19.45;11.68;;;;;;;7.87;70.97;99666.91;4431130;32;33990;-55
2022/01/03 04:02:39;;;;;;;22.98;12.95;;;;;;;8.03;70.17;99662.56;4430973;32;34783;-54
2022/01/03 04:05:08;;;;;;;20.73;12.75;;;;;;;8.32;69.03;99701.38;4429536;32;34588;-54
2022/01/03 04:07:36;;;;;;;20.77;11.85;;;;;;;8.43;68.34;99673.59;4419006;32;33735;-54
2022/01/03 04:10:05;;;;;;;21.25;12.73;;;;;;;8.41;68.56;99654.41;4415938;32;33988;-54
2022/01/03 04:12:33;;;;;;;20.15;12.85;;;;;;;8.58;68.29;99694.75;4415835;32;34026;-54
2022/01/03 04:15:02;;;;;;;35.45;21.60;;;;;;;8.42;68.68;99666.63;4415875;32;33796;-54
2022/01/03 04:17:31;;;;;;;29.50;18.30;;;;;;;8.42;68.66;99669.25;4416500;32;33667;-54
2022/01/03 04:19:59;;;;;;;;;;;;;;;8.36;68.73;99666.94;4415829;32;33720;-54
2022/01/03 04:22:26;;;;;;;27.02;18.95;;;;;;;8.42;69.24;99692.94;4415733;32;35557;-54
2022/01/03 04:24:54;;;;;;;24.23;16.12;;;;;;;8.43;68.98;99680.63;4415385;32;34740;-54
2022/01/03 04:27:22;;;;;;;20.60;13.60;;;;;;;8.29;69.33;99674.28;4415834;32;34399;-55
2022/01/03 04:29:49;;;;;;;25.05;14.87;;;;;;;8.39;69.28;99677.28;4415876;32;33891;-54
2022/01/03 04:32:17;;;;;;;25.67;14.40;;;;;;;8.56;68.54;99676.41;4415340;32;34582;-54
2022/01/03 04:34:45;;;;;;;22.42;13.27;;;;;;;8.33;68.89;99695.19;4415539;32;34563;-55
2022/01/03 04:37:16;;;;;;;21.35;12.98;;;;;;;8.70;67.41;99690.56;4416342;32;33675;-55
2022/01/03 04:39:45;;;;;;;20.83;12.70;;;;;;;8.71;66.97;99693.12;4427303;32;34585;-54
2022/01/03 04:42:12;;;;;;;20.10;12.55;;;;;;;9.09;65.44;99684.84;4432842;32;34225;-54
2022/01/03 04:44:40;;;;;;;20.23;12.95;;;;;;;8.98;65.79;99696.00;4433229;32;34229;-55
2022/01/03 04:47:08;;;;;;;20.37;12.68;;;;;;;9.19;64.89;99675.50;4419433;32;33896;-54
2022/01/03 04:49:35;;;;;;;19.77;12.43;;;;;;;9.10;65.30;99677.81;4424198;32;33876;-55
2022/01/03 04:52:03;;;;;;;20.58;12.77;;;;;;;9.01;65.54;99681.78;4420591;32;35069;-54
2022/01/03 04:54:31;;;;;;;21.55;12.50;;;;;;;9.10;65.40;99656.72;4417906;32;34654;-54
2022/01/03 04:57:00;;;;;;;19.90;11.70;;;;;;;9.16;65.46;99675.66;4417590;32;32926;-54
2022/01/03 04:59:46;;;;;;;19.92;12.35;;;;;;;9.23;65.15;99684.06;4418217;32;34721;-54
2022/01/03 05:02:14;;;;;;;26.10;15.25;;;;;;;9.22;65.30;99682.34;4418536;32;34191;-54
2022/01/03 05:04:42;;;;;;;24.58;14.60;;;;;;;9.26;65.34;99668.06;4417286;32;34185;-55
2022/01/03 05:07:09;;;;;;;;;;;;;;;9.18;65.76;99676.41;4428982;32;33575;-54
2022/01/03 05:09:37;;;;;;;34.83;21.10;;;;;;;9.26;65.02;99676.81;4431450;32;33885;-55
2022/01/03 05:12:05;;;;;;;30.85;18.52;;;;;;;9.11;65.75;99659.28;4432735;32;34383;-54
2022/01/03 05:14:33;;;;;;;26.02;15.20;;;;;;;9.15;65.75;99660.81;4432933;32;33910;-54
2022/01/03 05:17:02;;;;;;;140.77;56.67;;;;;;;9.17;65.83;99666.81;4422706;32;34215;-54
2022/01/03 05:19:29;;;;;;;62.22;28.73;;;;;;;9.05;66.18;99660.47;4423783;32;33711;-54
2022/01/03 05:21:56;;;;;;;55.20;23.25;;;;;;;9.10;66.14;99660.22;4431783;32;34554;-55
2022/01/03 05:24:24;;;;;;;69.47;27.98;;;;;;;9.12;66.06;99654.84;4432598;32;33712;-55
2022/01/03 05:26:52;;;;;;;;;;;;;;;9.10;65.92;99651.47;4422797;32;33852;-56
2022/01/03 05:29:20;;;;;;;30.20;19.10;;;;;;;9.14;65.81;99645.06;4429122;32;34458;-54
2022/01/03 05:31:48;;;;;;;22.80;13.73;;;;;;;9.12;65.93;99642.53;4423549;32;35250;-54
2022/01/03 05:34:16;;;;;;;22.25;15.05;;;;;;;9.18;65.78;99639.53;4417134;32;34058;-54
2022/01/03 05:36:43;;;;;;;27.33;16.77;;;;;;;9.17;65.96;99639.59;4431706;32;33548;-55
2022/01/03 05:39:11;;;;;;;29.23;23.35;;;;;;;9.06;65.97;99640.25;4432322;32;33555;-55
2022/01/03 05:41:39;;;;;;;24.45;15.43;;;;;;;9.21;65.54;99635.87;4431821;32;34469;-55
2022/01/03 05:44:08;;;;;;;20.55;12.07;;;;;;;9.30;65.17;99635.31;4432603;32;33503;-55
2022/01/03 05:46:36;;;;;;;21.55;13.62;;;;;;;9.19;65.12;99648.28;4470714;31;34023;-54
2022/01/03 05:49:06;;;;;;;27.35;18.92;;;;;;;9.18;65.19;99646.59;4417485;32;34029;-54
2022/01/03 05:51:34;;;;;;;19.42;11.93;;;;;;;9.31;65.06;99646.72;4417711;32;35049;-55
2022/01/03 05:54:02;;;;;;;21.25;11.15;;;;;;;9.43;64.16;99641.56;4417314;32;33991;-54
2022/01/03 05:56:30;;;;;;;20.10;11.32;;;;;;;9.33;64.36;99643.06;4417142;32;33462;-55
2022/01/03 05:58:57;;;;;;;;;;;;;;;9.34;64.49;99654.44;4420892;31;33548;-54
2022/01/03 06:01:26;;;;;;;25.20;14.38;;;;;;;9.52;63.73;99648.09;4421130;32;34326;-55
2022/01/03 06:04:01;;;;;;;20.45;11.57;;;;;;;9.51;63.96;99654.28;4430638;32;34224;-55
2022/01/03 06:09:17;;;;;;;17.62;10.75;;;;;;;9.56;63.78;99656.69;4470770;31;33600;-55
2022/01/03 06:11:44;;;;;;;20.25;10.52;;;;;;;9.62;63.64;99643.13;4418189;32;33178;-54
2022/01/03 06:14:15;;;;;;;17.73;11.35;;;;;;;9.63;63.80;99643.03;4427899;32;34542;-55
2022/01/03 06:16:46;;;;;;;19.25;11.38;;;;;;;9.64;64.00;99636.81;4428605;32;33437;-55
2022/01/03 06:19:14;;;;;;;21.15;11.57;;;;;;;9.57;64.69;99642.53;4423075;32;34037;-55
2022/01/03 06:21:42;;;;;;;21.02;11.25;;;;;;;9.63;64.25;99627.22;4425080;32;34022;-54
2022/01/03 06:24:16;;;;;;;17.83;11.55;;;;;;;9.59;64.00;99638.84;4429445;32;33462;-55
2022/01/03 06:26:44;;;;;;;20.25;11.98;;;;;;;9.60;63.68;99629.19;4417518;32;32389;-55
2022/01/03 06:29:13;;;;;;;24.48;14.00;;;;;;;9.78;63.03;99646.50;4428294;32;33145;-55
2022/01/03 06:31:42;;;;;;;35.03;20.37;;;;;;;9.52;64.05;99655.12;4425589;32;32452;-55
2022/01/03 06:34:10;;;;;;;22.67;13.30;;;;;;;9.64;63.82;99664.97;4432143;32;32831;-55
2022/01/03 06:36:37;;;;;;;21.58;12.73;;;;;;;9.85;63.54;99673.37;4432112;32;33141;-54
2022/01/03 06:39:07;;;;;;;20.95;12.85;;;;;;;9.51;64.12;99683.28;4425375;32;33884;-54
2022/01/03 06:41:36;;;;;;;20.45;11.55;;;;;;;9.56;63.88;99686.50;4430424;32;34899;-54
2022/01/03 06:44:04;;;;;;;20.20;11.48;;;;;;;9.66;62.85;99678.91;4432073;32;33750;-54
2022/01/03 06:46:32;;;;;;;17.45;10.30;;;;;;;9.80;62.53;99678.06;4431596;32;34126;-54
2022/01/03 06:49:00;;;;;;;19.33;10.63;;;;;;;9.72;62.98;99675.91;4416724;32;33544;-55
2022/01/03 06:51:34;;;;;;;17.15;10.65;;;;;;;9.86;62.87;99668.00;4417054;32;34833;-54
2022/01/03 06:54:06;;;;;;;16.50;10.38;;;;;;;9.84;63.19;99661.12;4416492;32;34907;-55
2022/01/03 06:56:33;;;;;;;17.40;11.00;;;;;;;9.82;63.60;99657.72;4417597;32;34294;-55
2022/01/03 06:59:01;;;;;;;15.85;9.90;;;;;;;9.97;63.49;99642.75;4425923;31;33724;-54
2022/01/03 07:01:29;;;;;;;16.75;9.75;;;;;;;10.00;63.04;99634.66;4425583;32;34581;-54
2022/01/03 07:03:57;;;;;;;20.12;10.18;;;;;;;9.86;63.30;99630.22;4430442;32;33965;-54
2022/01/03 07:06:25;;;;;;;16.10;8.73;;;;;;;9.97;62.99;99627.78;4430190;32;33554;-54
2022/01/03 07:08:53;;;;;;;18.23;8.07;;;;;;;10.22;62.19;99621.81;4418948;32;33466;-54
2022/01/03 07:11:21;;;;;;;14.15;5.62;;;;;;;10.18;62.22;99614.22;4421319;32;34478;-54
2022/01/03 07:13:52;;;;;;;10.02;4.53;;;;;;;10.42;60.94;99612.66;4422261;32;33647;-54
2022/01/03 07:19:07;;;;;;;8.68;3.45;;;;;;;10.99;59.06;99605.47;4428085;32;33729;-54
2022/01/03 07:21:35;;;;;;;10.52;3.75;;;;;;;11.32;58.01;99612.09;4417530;32;34637;-54
2022/01/03 07:24:03;;;;;;;6.70;1.98;;;;;;;11.55;56.96;99606.06;4479737;31;34490;-54
2022/01/03 07:26:31;;;;;;;8.18;1.65;;;;;;;11.90;55.17;99631.94;4418184;32;34043;-54
2022/01/03 07:28:58;;;;;;;4.47;1.35;;;;;;;12.24;54.05;99616.31;4416189;32;34634;-55
2022/01/03 07:31:25;;;;;;;5.30;1.62;;;;;;;12.55;53.54;99601.72;4425396;32;35225;-55
2022/01/03 07:33:53;;;;;;;;;;;;;;;12.83;53.07;99604.97;4430104;32;33942;-57
2022/01/03 07:36:20;;;;;;;4.87;1.52;;;;;;;12.99;51.41;99600.25;4423498;32;32478;-57
2022/01/03 07:38:49;;;;;;;5.95;1.62;;;;;;;13.27;50.31;99598.16;4431133;32;33649;-57
2022/01/03 07:41:17;;;;;;;8.40;1.67;;;;;;;13.33;49.53;99594.22;4434255;32;35224;-58
2022/01/03 07:43:45;;;;;;;4.12;1.30;;;;;;;13.60;48.08;99596.56;4437857;32;34792;-57
2022/01/03 07:46:12;;;;;;;4.93;1.12;;;;;;;13.67;48.24;99596.94;4429932;32;33429;-57
2022/01/03 07:48:43;;;;;;;4.62;0.98;;;;;;;13.77;47.99;99597.91;4420901;32;33924;-57
2022/01/03 07:51:10;;;;;;;;;;;;;;;13.94;47.56;99594.78;4429879;32;34589;-57
2022/01/03 07:53:37;;;;;;;5.45;1.20;;;;;;;13.97;47.13;99614.94;4430166;32;34556;-57
2022/01/03 07:56:05;;;;;;;6.12;1.30;;;;;;;14.16;46.07;99619.63;4429710;32;34028;-57
2022/01/03 07:58:32;;;;;;;3.80;1.08;;;;;;;14.20;46.30;99618.41;4429238;32;33991;-58
2022/01/03 08:01:00;;;;;;;4.30;1.40;;;;;;;14.37;45.70;99636.50;4424685;31;34197;-57
2022/01/03 08:03:28;;;;;;;3.37;0.98;;;;;;;14.43;45.13;99632.53;4432057;31;34766;-57
2022/01/03 08:06:07;;;;;;;;;;;;;;;14.43;45.14;99647.62;4422780;32;32981;-57
2022/01/03 08:08:39;;;;;;;5.93;1.12;;;;;;;14.44;45.35;99639.50;4414820;32;34278;-57
2022/01/03 08:11:06;;;;;;;3.70;1.10;;;;;;;14.39;45.41;99647.03;4415141;31;34340;-57
2022/01/03 08:13:34;;;;;;;4.87;1.30;;;;;;;14.51;45.40;99647.84;4426094;32;33644;-57
2022/01/03 08:16:02;;;;;;;4.07;1.10;;;;;;;14.55;45.31;99644.81;4415151;32;33142;-57
2022/01/03 08:18:32;;;;;;;3.58;1.20;;;;;;;14.46;45.00;99652.66;4414537;32;34321;-57
2022/01/03 08:20:59;;;;;;;5.32;1.10;;;;;;;14.55;45.03;99670.53;4414523;32;34571;-57
2022/01/03 08:23:27;;;;;;;3.37;0.95;;;;;;;14.59;45.41;99664.03;4428789;32;34528;-57
2022/01/03 08:25:54;;;;;;;2.97;1.02;;;;;;;14.65;44.60;99650.25;4429304;32;33477;-58
2022/01/03 08:28:22;;;;;;;;;;;;;;;14.82;44.51;99659.53;4429389;32;33804;-57
2022/01/03 08:30:49;;;;;;;4.35;1.10;;;;;;;14.80;44.60;99669.44;4423307;32;184297;-57
2022/01/03 08:33:16;;;;;;;;;;;;;;;14.68;44.88;99660.66;4425291;31;34461;-57
2022/01/03 08:35:44;;;;;;;2.67;0.90;;;;;;;14.62;45.38;99649.66;4458014;31;33926;-57
2022/01/03 08:38:11;;;;;;;5.43;1.00;;;;;;;14.60;45.52;99668.41;4415314;32;33821;-57
2022/01/03 08:40:39;;;;;;;5.00;1.40;;;;;;;14.65;45.21;99655.56;4414898;32;34888;-57
2022/01/03 08:43:07;;;;;;;4.35;1.08;;;;;;;14.85;44.97;99669.06;4415031;32;33999;-57
2022/01/03 08:45:34;;;;;;;4.60;1.30;;;;;;;14.90;44.71;99672.19;4415563;31;33315;-58
2022/01/03 08:48:06;;;;;;;4.95;1.10;;;;;;;14.82;45.05;99674.63;4421613;32;34306;-58
2022/01/03 08:50:34;;;;;;;4.00;1.20;;;;;;;14.60;45.63;99680.81;4416917;32;34154;-57
2022/01/03 08:53:04;;;;;;;9.77;3.90;;;;;;;14.83;45.12;99689.59;4416546;32;34351;-57
2022/01/03 08:55:32;;;;;;;3.58;1.10;;;;;;;14.84;45.53;99699.28;4426799;32;33116;-57
2022/01/03 08:57:59;;;;;;;6.37;1.75;;;;;;;14.86;45.08;99684.06;4423417;32;33473;-58
2022/01/03 09:00:28;;;;;;;3.72;1.33;;;;;;;14.61;46.29;99696.66;4418747;32;34162;-57
2022/01/03 09:02:56;;;;;;;3.45;1.15;;;;;;;14.81;45.76;99708.38;4428015;32;34169;-58
2022/01/03 09:05:23;;;;;;;8.25;1.67;;;;;;;14.71;46.14;99700.28;4428580;32;34429;-57
2022/01/03 09:07:50;;;;;;;5.32;1.30;;;;;;;14.66;46.55;99693.66;4416875;32;34261;-58
2022/01/03 09:10:18;;;;;;;;;;;;;;;14.59;46.61;99706.56;4417509;32;35106;-57
2022/01/03 09:12:45;;;;;;;5.93;1.55;;;;;;;14.73;46.58;99694.81;4415263;32;34285;-58
2022/01/03 09:15:13;;;;;;;5.12;1.50;;;;;;;14.66;46.74;99675.03;4414817;32;33383;-57
2022/01/03 09:17:42;;;;;;;4.43;1.30;;;;;;;14.57;46.55;99716.47;4422178;32;32967;-58
2022/01/03 09:20:10;;;;;;;3.65;1.08;;;;;;;14.54;46.69;99708.72;4424680;32;34607;-58
2022/01/03 09:22:42;;;;;;;5.78;1.42;;;;;;;14.71;45.36;99702.94;4430088;32;33712;-57
2022/01/03 09:30:36;;;;;;;3.08;0.98;;;;;;;14.47;45.93;99699.53;4417226;32;35026;-58
2022/01/03 09:33:04;;;;;;;4.95;1.05;;;;;;;14.40;46.17;99701.00;4426167;32;34305;-58
2022/01/03 09:35:31;;;;;;;5.10;1.40;;;;;;;14.39;46.02;99678.91;4429411;32;33336;-58
2022/01/03 09:37:59;;;;;;;;;;;;;;;14.34;46.26;99689.88;4418558;32;33953;-57
2022/01/03 09:40:26;;;;;;;4.22;1.20;;;;;;;14.36;46.30;99672.03;4416828;32;34978;-58
2022/01/03 09:42:57;;;;;;;5.07;1.40;;;;;;;14.47;46.23;99676.47;4421812;32;33494;-58
2022/01/03 09:45:32;;;;;;;3.62;1.37;;;;;;;14.57;46.02;99665.97;4418316;32;33395;-58
2022/01/03 09:48:01;;;;;;;4.55;1.25;;;;;;;14.32;46.00;99657.28;4426102;32;34707;-58
2022/01/03 09:50:32;;;;;;;4.45;1.30;;;;;;;14.30;46.07;99663.69;4416965;32;34583;-57
2022/01/03 09:53:02;;;;;;;4.43;1.30;;;;;;;14.26;46.58;99659.59;4477066;31;34834;-58
2022/01/03 09:55:30;;;;;;;3.17;0.90;;;;;;;14.25;46.67;99673.81;4431827;32;33152;-58
2022/01/03 09:57:57;;;;;;;4.45;0.85;;;;;;;14.28;46.39;99674.41;4417398;32;34400;-57
2022/01/03 10:00:26;;;;;;;3.78;1.08;;;;;;;14.12;46.76;99668.63;4416895;32;34271;-58
2022/01/03 10:02:55;;;;;;;3.37;1.20;;;;;;;14.37;46.08;99664.91;4425194;32;34377;-58
2022/01/03 10:05:22;;;;;;;4.22;0.90;;;;;;;14.29;46.24;99670.81;4418962;32;33942;-58
2022/01/03 10:07:50;;;;;;;3.87;1.17;;;;;;;14.05;47.25;99659.47;4432243;32;34091;-58
2022/01/03 10:10:18;;;;;;;4.47;1.20;;;;;;;14.19;47.17;99661.91;4416370;32;35415;-57
2022/01/03 10:12:46;;;;;;;5.53;1.37;;;;;;;14.20;47.15;99662.72;4416912;32;33563;-58
2022/01/03 10:15:13;;;;;;;;;;;;;;;13.88;47.89;99653.66;4416258;32;33045;-58
2022/01/03 10:17:41;;;;;;;4.53;1.20;;;;;;;13.73;48.36;99653.03;4415561;32;33882;-58
2022/01/03 10:20:12;;;;;;;6.45;1.60;;;;;;;13.99;47.56;99651.00;4416370;32;34990;-58
2022/01/03 10:22:41;;;;;;;4.75;1.40;;;;;;;14.03;47.33;99650.78;4416609;32;33757;-58
2022/01/03 10:25:17;;;;;;;5.30;1.48;;;;;;;13.94;47.93;99653.19;4416481;32;32861;-58
2022/01/03 10:27:54;;;;;;;4.22;1.27;;;;;;;13.85;48.46;99631.81;4416524;32;34602;-58
2022/01/03 10:30:41;;;;;;;3.45;1.05;;;;;;;13.79;48.66;99627.84;4415746;32;34249;-58
2022/01/03 10:33:11;;;;;;;4.47;1.10;;;;;;;13.81;48.42;99609.97;4427116;31;34193;-58
2022/01/03 10:35:40;;;;;;;4.35;1.20;;;;;;;13.83;48.38;99608.03;4472539;31;33867;-58
2022/01/03 10:38:09;;;;;;;4.00;1.42;;;;;;;13.75;48.03;99602.50;4432354;32;34075;-58
2022/01/03 10:40:39;;;;;;;3.95;1.10;;;;;;;13.67;48.98;99611.06;4431782;32;34060;-58
2022/01/03 10:43:19;;;;;;;4.18;1.30;;;;;;;13.65;48.97;99607.69;4431415;32;33626;-57
2022/01/03 10:45:47;;;;;;;4.32;1.33;;;;;;;13.68;49.31;99614.53;4416852;32;33119;-57
2022/01/03 10:48:30;;;;;;;5.82;1.35;;;;;;;13.69;49.28;99616.25;4416432;32;34265;-58
2022/01/03 10:51:00;;;;;;;2.87;1.10;;;;;;;13.83;48.86;99620.47;4416533;32;34908;-58
2022/01/03 10:53:41;;;;;;;4.90;1.60;;;;;;;13.70;49.04;99618.75;4416415;32;33711;-58
2022/01/03 10:56:35;;;;;;;3.35;1.08;;;;;;;14.05;48.39;99617.81;4416845;32;33479;-58
2022/01/03 10:59:15;;;;;;;4.68;1.35;;;;;;;14.04;47.95;99618.78;4416204;32;34020;-58
2022/01/03 11:01:49;;;;;;;4.05;1.30;;;;;;;14.03;48.21;99627.72;4416297;32;34831;-57
2022/01/03 11:04:39;;;;;;;4.15;1.30;;;;;;;13.91;48.67;99620.72;4428543;32;34157;-58
2022/01/03 11:10:43;;;;;;;6.22;1.40;;;;;;;14.36;47.41;99626.87;4419278;32;33625;-58
2022/01/03 11:13:18;;;;;;;4.53;1.00;;;;;;;14.05;48.51;99599.22;4417152;32;34090;-57
2022/01/03 11:15:52;;;;;;;6.40;1.75;;;;;;;14.38;47.69;99601.03;4428330;32;33084;-58
2022/01/03 11:18:24;;;;;;;5.07;1.42;;;;;;;14.33;47.84;99600.53;4416081;32;33381;-58
2022/01/03 11:21:06;;;;;;;6.25;1.80;;;;;;;14.20;48.40;99599.00;4426880;32;33470;-57
2022/01/03 11:23:34;;;;;;;7.43;1.60;;;;;;;14.37;48.12;99603.78;4431342;32;34537;-58
2022/01/03 11:26:10;;;;;;;6.62;1.77;;;;;;;14.14;48.74;99597.66;4430672;32;34142;-58
2022/01/03 11:28:40;;;;;;;5.97;2.00;;;;;;;14.39;47.98;99612.47;4416046;32;33130;-58
2022/01/03 11:31:10;;;;;;;7.12;2.10;;;;;;;14.26;48.09;99622.41;4427276;32;33581;-58
2022/01/03 11:33:39;;;;;;;7.03;1.70;;;;;;;14.48;47.31;99608.22;4471972;31;35193;-58
2022/01/03 11:36:27;;;;;;;7.05;2.03;;;;;;;14.56;46.85;99611.13;4415713;32;34749;-57
2022/01/03 11:38:56;;;;;;;3.83;1.42;;;;;;;14.70;46.52;99604.72;4429243;32;32803;-58
2022/01/03 11:41:24;;;;;;;5.45;1.23;;;;;;;14.63;46.09;99603.53;4458092;32;33512;-58
2022/01/03 11:43:53;;;;;;;3.72;1.20;;;;;;;14.56;46.56;99595.19;4416269;32;33104;-58
2022/01/03 11:46:22;;;;;;;4.45;1.20;;;;;;;14.64;46.10;99587.47;4469625;31;33821;-57
2022/01/03 11:48:51;;;;;;;4.80;0.90;;;;;;;14.40;46.37;99589.41;4480851;31;33093;-57
2022/01/03 11:51:19;;;;;;;6.82;1.05;;;;;;;14.59;45.76;99604.75;4429823;32;33495;-58
2022/01/03 11:53:49;;;;;;;3.65;0.95;;;;;;;14.59;45.54;99608.25;4446343;32;35148;-58
2022/01/03 11:56:19;;;;;;;3.62;1.00;;;;;;;14.27;46.14;99616.97;4446887;32;33569;-58
2022/01/03 11:59:05;;;;;;;3.35;1.00;;;;;;;14.36;45.70;99610.94;4434245;31;33103;-58
2022/01/03 12:04:58;;;;;;;4.55;1.20;;;;;;;14.48;45.12;99622.38;4439327;31;34260;-58